sensor_id;sensor_type;location;lat;lon;timestamp;temperature;humidity
5246;DHT22;54412;51.206;6.888;2023-04-25T00:01:17;9.30;99.90
5246;DHT22;54412;51.206;6.888;2023-04-25T00:03:44;9.30;99.90
5246;DHT22;54412;51.206;6.888;2023-04-25T00:06:12;9.40;99.90
5246;DHT22;54412;51.206;6.888;2023-04-25T00:08:38;9.40;99.90
5246;DHT22;54412;51.206;6.888;2023-04-25T00:11:04;9.40;99.90
5246;DHT22;54412;51.206;6.888;2023-04-25T00:13:29;9.40;99.90
5246;DHT22;54412;51.206;6.888;2023-04-25T00:15:55;9.40;99.90
5246;DHT22;54412;51.206;6.888;2023-04-25T00:18:25;9.50;99.90
5246;DHT22;54412;51.206;6.888;2023-04-25T00:20:54;9.40;99.90
5246;DHT22;54412;51.206;6.888;2023-04-25T00:23:20;9.50;99.90
5246;DHT22;54412;51.206;6.888;2023-04-25T00:25:48;9.40;99.90
5246;DHT22;54412;51.206;6.888;2023-04-25T00:28:15;9.40;99.90
5246;DHT22;54412;51.206;6.888;2023-04-25T00:30:42;9.40;99.90
5246;DHT22;54412;51.206;6.888;2023-04-25T00:33:08;9.40;99.90
5246;DHT22;54412;51.206;6.888;2023-04-25T00:35:35;9.40;99.90
5246;DHT22;54412;51.206;6.888;2023-04-25T00:38:01;9.50;99.90
5246;DHT22;54412;51.206;6.888;2023-04-25T00:40:27;9.50;99.90
5246;DHT22;54412;51.206;6.888;2023-04-25T00:42:54;9.50;99.90
5246;DHT22;54412;51.206;6.888;2023-04-25T00:45:20;9.50;99.90
5246;DHT22;54412;51.206;6.888;2023-04-25T00:47:46;9.50;99.90
5246;DHT22;54412;51.206;6.888;2023-04-25T00:50:15;9.40;99.90
5246;DHT22;54412;51.206;6.888;2023-04-25T00:52:43;9.50;99.90
5246;DHT22;54412;51.206;6.888;2023-04-25T00:55:11;9.40;99.90
5246;DHT22;54412;51.206;6.888;2023-04-25T00:57:38;9.50;99.90
5246;DHT22;54412;51.206;6.888;2023-04-25T01:00:05;9.40;99.90
5246;DHT22;54412;51.206;6.888;2023-04-25T01:02:33;9.40;99.90
5246;DHT22;54412;51.206;6.888;2023-04-25T01:05:00;9.50;99.90
5246;DHT22;54412;51.206;6.888;2023-04-25T01:07:26;9.50;99.90
5246;DHT22;54412;51.206;6.888;2023-04-25T01:09:52;9.30;99.90
5246;DHT22;54412;51.206;6.888;2023-04-25T01:12:18;9.30;99.90
5246;DHT22;54412;51.206;6.888;2023-04-25T01:14:44;9.30;99.90
5246;DHT22;54412;51.206;6.888;2023-04-25T01:17:10;9.30;99.90
5246;DHT22;54412;51.206;6.888;2023-04-25T01:19:36;9.40;99.90
5246;DHT22;54412;51.206;6.888;2023-04-25T01:22:03;9.30;99.90
5246;DHT22;54412;51.206;6.888;2023-04-25T01:24:29;9.40;99.90
5246;DHT22;54412;51.206;6.888;2023-04-25T01:26:58;9.40;99.90
5246;DHT22;54412;51.206;6.888;2023-04-25T01:29:26;9.50;99.90
5246;DHT22;54412;51.206;6.888;2023-04-25T01:31:53;9.50;99.90
5246;DHT22;54412;51.206;6.888;2023-04-25T01:34:19;9.40;99.90
5246;DHT22;54412;51.206;6.888;2023-04-25T01:36:47;9.30;99.90
5246;DHT22;54412;51.206;6.888;2023-04-25T01:39:16;9.40;99.90
5246;DHT22;54412;51.206;6.888;2023-04-25T01:41:43;9.40;99.90
5246;DHT22;54412;51.206;6.888;2023-04-25T01:44:08;9.30;99.90
5246;DHT22;54412;51.206;6.888;2023-04-25T01:46:34;9.30;99.90
5246;DHT22;54412;51.206;6.888;2023-04-25T01:49:01;9.30;99.90
5246;DHT22;54412;51.206;6.888;2023-04-25T01:51:27;9.30;99.90
5246;DHT22;54412;51.206;6.888;2023-04-25T01:53:54;9.30;99.90
5246;DHT22;54412;51.206;6.888;2023-04-25T01:56:20;9.30;99.90
5246;DHT22;54412;51.206;6.888;2023-04-25T01:58:46;9.30;99.90
5246;DHT22;54412;51.206;6.888;2023-04-25T02:01:12;9.30;99.90
5246;DHT22;54412;51.206;6.888;2023-04-25T02:03:38;9.30;99.90
5246;DHT22;54412;51.206;6.888;2023-04-25T02:06:04;9.30;99.90
5246;DHT22;54412;51.206;6.888;2023-04-25T02:08:29;9.30;99.90
5246;DHT22;54412;51.206;6.888;2023-04-25T02:10:56;9.30;99.90
5246;DHT22;54412;51.206;6.888;2023-04-25T02:13:22;9.20;99.90
5246;DHT22;54412;51.206;6.888;2023-04-25T02:15:48;9.30;99.90
5246;DHT22;54412;51.206;6.888;2023-04-25T02:18:14;9.20;99.90
5246;DHT22;54412;51.206;6.888;2023-04-25T02:20:42;9.30;99.90
5246;DHT22;54412;51.206;6.888;2023-04-25T02:23:08;9.20;99.90
5246;DHT22;54412;51.206;6.888;2023-04-25T02:25:34;9.20;99.90
5246;DHT22;54412;51.206;6.888;2023-04-25T02:28:00;9.20;99.90
5246;DHT22;54412;51.206;6.888;2023-04-25T02:30:25;9.20;99.90
5246;DHT22;54412;51.206;6.888;2023-04-25T02:32:51;9.30;99.90
5246;DHT22;54412;51.206;6.888;2023-04-25T02:35:17;9.30;99.90
5246;DHT22;54412;51.206;6.888;2023-04-25T02:37:43;9.20;99.90
5246;DHT22;54412;51.206;6.888;2023-04-25T02:40:09;9.20;99.90
5246;DHT22;54412;51.206;6.888;2023-04-25T02:42:35;9.10;99.90
5246;DHT22;54412;51.206;6.888;2023-04-25T02:45:01;9.20;99.90
5246;DHT22;54412;51.206;6.888;2023-04-25T02:47:27;9.20;99.90
5246;DHT22;54412;51.206;6.888;2023-04-25T02:49:53;9.20;99.90
5246;DHT22;54412;51.206;6.888;2023-04-25T02:52:19;9.20;99.90
5246;DHT22;54412;51.206;6.888;2023-04-25T02:54:46;9.20;99.90
5246;DHT22;54412;51.206;6.888;2023-04-25T02:57:12;9.20;99.90
5246;DHT22;54412;51.206;6.888;2023-04-25T02:59:37;9.20;99.90
5246;DHT22;54412;51.206;6.888;2023-04-25T03:02:03;9.10;99.90
5246;DHT22;54412;51.206;6.888;2023-04-25T03:04:29;9.10;99.90
5246;DHT22;54412;51.206;6.888;2023-04-25T03:06:55;9.10;99.90
5246;DHT22;54412;51.206;6.888;2023-04-25T03:09:21;9.10;99.90
5246;DHT22;54412;51.206;6.888;2023-04-25T03:11:46;9.10;99.90
5246;DHT22;54412;51.206;6.888;2023-04-25T03:14:13;9.10;99.90
5246;DHT22;54412;51.206;6.888;2023-04-25T03:16:39;9.10;99.90
5246;DHT22;54412;51.206;6.888;2023-04-25T03:19:05;9.10;99.90
5246;DHT22;54412;51.206;6.888;2023-04-25T03:21:35;9.10;99.90
5246;DHT22;54412;51.206;6.888;2023-04-25T03:24:02;9.10;99.90
5246;DHT22;54412;51.206;6.888;2023-04-25T03:26:29;9.00;99.90
5246;DHT22;54412;51.206;6.888;2023-04-25T03:28:55;9.00;99.90
5246;DHT22;54412;51.206;6.888;2023-04-25T03:31:21;9.10;99.90
5246;DHT22;54412;51.206;6.888;2023-04-25T03:33:47;9.10;99.90
5246;DHT22;54412;51.206;6.888;2023-04-25T03:36:13;9.10;99.90
5246;DHT22;54412;51.206;6.888;2023-04-25T03:38:39;9.10;99.90
5246;DHT22;54412;51.206;6.888;2023-04-25T03:41:06;9.10;99.90
5246;DHT22;54412;51.206;6.888;2023-04-25T03:43:32;9.10;99.90
5246;DHT22;54412;51.206;6.888;2023-04-25T03:45:58;9.10;99.90
5246;DHT22;54412;51.206;6.888;2023-04-25T03:48:24;9.10;99.90
5246;DHT22;54412;51.206;6.888;2023-04-25T03:50:51;9.10;99.90
5246;DHT22;54412;51.206;6.888;2023-04-25T03:53:17;9.10;99.90
5246;DHT22;54412;51.206;6.888;2023-04-25T03:55:43;9.00;99.90
5246;DHT22;54412;51.206;6.888;2023-04-25T03:58:09;9.00;99.90
5246;DHT22;54412;51.206;6.888;2023-04-25T04:00:35;9.00;99.90
5246;DHT22;54412;51.206;6.888;2023-04-25T04:03:01;9.00;99.90
5246;DHT22;54412;51.206;6.888;2023-04-25T04:05:27;9.00;99.90
5246;DHT22;54412;51.206;6.888;2023-04-25T04:07:53;9.00;99.90
5246;DHT22;54412;51.206;6.888;2023-04-25T04:10:20;9.00;99.90
5246;DHT22;54412;51.206;6.888;2023-04-25T04:12:46;8.90;99.90
5246;DHT22;54412;51.206;6.888;2023-04-25T04:15:12;8.90;99.90
5246;DHT22;54412;51.206;6.888;2023-04-25T04:17:38;8.90;99.90
5246;DHT22;54412;51.206;6.888;2023-04-25T04:20:04;8.90;99.90
5246;DHT22;54412;51.206;6.888;2023-04-25T04:22:31;8.80;99.90
5246;DHT22;54412;51.206;6.888;2023-04-25T04:24:57;8.80;99.90
5246;DHT22;54412;51.206;6.888;2023-04-25T04:27:23;8.80;99.90
5246;DHT22;54412;51.206;6.888;2023-04-25T04:29:49;8.80;99.90
5246;DHT22;54412;51.206;6.888;2023-04-25T04:32:17;8.80;99.90
5246;DHT22;54412;51.206;6.888;2023-04-25T04:34:43;8.70;99.90
5246;DHT22;54412;51.206;6.888;2023-04-25T04:37:09;8.70;99.90
5246;DHT22;54412;51.206;6.888;2023-04-25T04:39:36;8.70;99.90
5246;DHT22;54412;51.206;6.888;2023-04-25T04:42:02;8.60;99.90
5246;DHT22;54412;51.206;6.888;2023-04-25T04:44:29;8.70;99.90
5246;DHT22;54412;51.206;6.888;2023-04-25T04:46:58;8.70;99.90
5246;DHT22;54412;51.206;6.888;2023-04-25T04:49:24;8.80;99.90
5246;DHT22;54412;51.206;6.888;2023-04-25T04:51:50;8.80;99.90
5246;DHT22;54412;51.206;6.888;2023-04-25T04:54:16;8.70;99.90
5246;DHT22;54412;51.206;6.888;2023-04-25T04:56:42;8.70;99.90
5246;DHT22;54412;51.206;6.888;2023-04-25T04:59:07;8.70;99.90
5246;DHT22;54412;51.206;6.888;2023-04-25T05:01:33;8.70;99.90
5246;DHT22;54412;51.206;6.888;2023-04-25T05:04:02;8.70;99.90
5246;DHT22;54412;51.206;6.888;2023-04-25T05:06:28;8.70;99.90
5246;DHT22;54412;51.206;6.888;2023-04-25T05:08:55;8.70;99.90
5246;DHT22;54412;51.206;6.888;2023-04-25T05:11:22;8.70;99.90
5246;DHT22;54412;51.206;6.888;2023-04-25T05:13:50;8.70;99.90
5246;DHT22;54412;51.206;6.888;2023-04-25T05:16:19;8.70;99.90
5246;DHT22;54412;51.206;6.888;2023-04-25T05:18:46;8.70;99.90
5246;DHT22;54412;51.206;6.888;2023-04-25T05:21:12;8.80;99.90
5246;DHT22;54412;51.206;6.888;2023-04-25T05:23:38;8.80;99.90
5246;DHT22;54412;51.206;6.888;2023-04-25T05:26:04;8.80;99.90
5246;DHT22;54412;51.206;6.888;2023-04-25T05:28:30;8.80;99.90
5246;DHT22;54412;51.206;6.888;2023-04-25T05:30:56;8.80;99.90
5246;DHT22;54412;51.206;6.888;2023-04-25T05:33:22;8.80;99.90
5246;DHT22;54412;51.206;6.888;2023-04-25T05:35:48;8.90;99.90
5246;DHT22;54412;51.206;6.888;2023-04-25T05:38:13;8.80;99.90
5246;DHT22;54412;51.206;6.888;2023-04-25T05:40:40;8.90;99.90
5246;DHT22;54412;51.206;6.888;2023-04-25T05:43:06;9.00;99.90
5246;DHT22;54412;51.206;6.888;2023-04-25T05:45:32;9.00;99.90
5246;DHT22;54412;51.206;6.888;2023-04-25T05:47:58;9.10;99.90
5246;DHT22;54412;51.206;6.888;2023-04-25T05:50:23;9.10;99.90
5246;DHT22;54412;51.206;6.888;2023-04-25T05:52:50;9.30;99.90
5246;DHT22;54412;51.206;6.888;2023-04-25T05:55:16;9.20;99.90
5246;DHT22;54412;51.206;6.888;2023-04-25T05:57:41;9.30;99.90
5246;DHT22;54412;51.206;6.888;2023-04-25T06:00:11;9.30;99.90
5246;DHT22;54412;51.206;6.888;2023-04-25T06:02:38;9.30;99.90
5246;DHT22;54412;51.206;6.888;2023-04-25T06:05:04;9.40;99.90
5246;DHT22;54412;51.206;6.888;2023-04-25T06:07:30;9.50;99.90
5246;DHT22;54412;51.206;6.888;2023-04-25T06:09:56;9.60;99.90
5246;DHT22;54412;51.206;6.888;2023-04-25T06:12:22;9.60;99.90
5246;DHT22;54412;51.206;6.888;2023-04-25T06:14:47;9.80;99.90
5246;DHT22;54412;51.206;6.888;2023-04-25T06:17:13;9.70;99.90
5246;DHT22;54412;51.206;6.888;2023-04-25T06:19:39;9.60;99.90
5246;DHT22;54412;51.206;6.888;2023-04-25T06:22:05;9.70;99.90
5246;DHT22;54412;51.206;6.888;2023-04-25T06:24:32;9.60;99.90
5246;DHT22;54412;51.206;6.888;2023-04-25T06:26:57;9.70;99.90
5246;DHT22;54412;51.206;6.888;2023-04-25T06:29:23;9.70;99.90
5246;DHT22;54412;51.206;6.888;2023-04-25T06:31:49;9.70;99.90
5246;DHT22;54412;51.206;6.888;2023-04-25T06:34:15;9.70;99.90
5246;DHT22;54412;51.206;6.888;2023-04-25T06:36:40;9.80;99.90
5246;DHT22;54412;51.206;6.888;2023-04-25T06:39:06;9.80;99.90
5246;DHT22;54412;51.206;6.888;2023-04-25T06:41:32;9.70;99.90
5246;DHT22;54412;51.206;6.888;2023-04-25T06:43:58;9.70;99.90
5246;DHT22;54412;51.206;6.888;2023-04-25T06:46:24;9.60;99.90
5246;DHT22;54412;51.206;6.888;2023-04-25T06:48:49;9.50;99.90
5246;DHT22;54412;51.206;6.888;2023-04-25T06:51:16;9.50;99.90
5246;DHT22;54412;51.206;6.888;2023-04-25T06:53:41;9.70;99.90
5246;DHT22;54412;51.206;6.888;2023-04-25T06:56:07;9.70;99.90
5246;DHT22;54412;51.206;6.888;2023-04-25T06:58:33;9.80;99.90
5246;DHT22;54412;51.206;6.888;2023-04-25T07:00:58;9.90;99.90
5246;DHT22;54412;51.206;6.888;2023-04-25T07:03:24;9.80;99.90
5246;DHT22;54412;51.206;6.888;2023-04-25T07:05:50;9.90;99.90
5246;DHT22;54412;51.206;6.888;2023-04-25T07:08:16;9.90;99.90
5246;DHT22;54412;51.206;6.888;2023-04-25T07:10:42;9.80;99.90
5246;DHT22;54412;51.206;6.888;2023-04-25T07:13:08;9.80;99.90
5246;DHT22;54412;51.206;6.888;2023-04-25T07:15:34;10.00;99.90
5246;DHT22;54412;51.206;6.888;2023-04-25T07:18:00;9.90;99.90
5246;DHT22;54412;51.206;6.888;2023-04-25T07:20:25;10.00;99.90
5246;DHT22;54412;51.206;6.888;2023-04-25T07:22:52;10.40;99.90
5246;DHT22;54412;51.206;6.888;2023-04-25T07:25:18;10.50;99.90
5246;DHT22;54412;51.206;6.888;2023-04-25T07:27:45;10.60;99.90
5246;DHT22;54412;51.206;6.888;2023-04-25T07:30:10;10.80;99.90
5246;DHT22;54412;51.206;6.888;2023-04-25T07:32:37;10.90;99.90
5246;DHT22;54412;51.206;6.888;2023-04-25T07:35:04;10.90;99.90
5246;DHT22;54412;51.206;6.888;2023-04-25T07:37:30;10.80;99.90
5246;DHT22;54412;51.206;6.888;2023-04-25T07:39:55;10.90;99.90
5246;DHT22;54412;51.206;6.888;2023-04-25T07:42:21;10.80;99.90
5246;DHT22;54412;51.206;6.888;2023-04-25T07:44:47;10.80;99.90
5246;DHT22;54412;51.206;6.888;2023-04-25T07:47:12;10.70;99.90
5246;DHT22;54412;51.206;6.888;2023-04-25T07:49:38;10.50;99.90
5246;DHT22;54412;51.206;6.888;2023-04-25T07:52:05;10.30;99.90
5246;DHT22;54412;51.206;6.888;2023-04-25T07:54:32;10.30;99.90
5246;DHT22;54412;51.206;6.888;2023-04-25T07:56:58;10.20;99.90
5246;DHT22;54412;51.206;6.888;2023-04-25T07:59:24;10.10;99.90
5246;DHT22;54412;51.206;6.888;2023-04-25T08:01:50;10.20;99.90
5246;DHT22;54412;51.206;6.888;2023-04-25T08:04:15;10.20;99.90
5246;DHT22;54412;51.206;6.888;2023-04-25T08:06:42;10.20;99.90
5246;DHT22;54412;51.206;6.888;2023-04-25T08:09:08;10.30;99.90
5246;DHT22;54412;51.206;6.888;2023-04-25T08:11:35;10.20;99.90
5246;DHT22;54412;51.206;6.888;2023-04-25T08:14:01;10.30;99.90
5246;DHT22;54412;51.206;6.888;2023-04-25T08:16:27;10.30;99.90
5246;DHT22;54412;51.206;6.888;2023-04-25T08:18:53;10.40;99.90
5246;DHT22;54412;51.206;6.888;2023-04-25T08:21:19;10.60;99.90
5246;DHT22;54412;51.206;6.888;2023-04-25T08:23:45;11.10;99.90
5246;DHT22;54412;51.206;6.888;2023-04-25T08:26:11;11.10;99.90
5246;DHT22;54412;51.206;6.888;2023-04-25T08:28:37;11.00;99.90
5246;DHT22;54412;51.206;6.888;2023-04-25T08:31:03;11.00;99.90
5246;DHT22;54412;51.206;6.888;2023-04-25T08:33:29;11.00;99.90
5246;DHT22;54412;51.206;6.888;2023-04-25T08:35:55;11.00;99.90
5246;DHT22;54412;51.206;6.888;2023-04-25T08:38:21;11.00;99.90
5246;DHT22;54412;51.206;6.888;2023-04-25T08:40:50;10.90;99.90
5246;DHT22;54412;51.206;6.888;2023-04-25T08:43:20;10.90;99.90
5246;DHT22;54412;51.206;6.888;2023-04-25T08:45:46;11.00;99.90
5246;DHT22;54412;51.206;6.888;2023-04-25T08:48:15;11.40;99.90
5246;DHT22;54412;51.206;6.888;2023-04-25T08:50:53;11.90;99.90
5246;DHT22;54412;51.206;6.888;2023-04-25T08:53:26;12.10;99.90
5246;DHT22;54412;51.206;6.888;2023-04-25T08:55:57;11.70;99.90
5246;DHT22;54412;51.206;6.888;2023-04-25T08:58:25;11.40;99.90
5246;DHT22;54412;51.206;6.888;2023-04-25T09:00:52;11.30;99.90
5246;DHT22;54412;51.206;6.888;2023-04-25T09:03:18;11.10;99.90
5246;DHT22;54412;51.206;6.888;2023-04-25T09:05:44;11.40;99.90
5246;DHT22;54412;51.206;6.888;2023-04-25T09:08:10;11.50;99.90
5246;DHT22;54412;51.206;6.888;2023-04-25T09:10:36;11.80;99.90
5246;DHT22;54412;51.206;6.888;2023-04-25T09:13:05;12.00;99.90
5246;DHT22;54412;51.206;6.888;2023-04-25T09:18:28;12.80;99.90
5246;DHT22;54412;51.206;6.888;2023-04-25T09:20:57;12.90;99.90
5246;DHT22;54412;51.206;6.888;2023-04-25T09:23:30;13.00;99.90
5246;DHT22;54412;51.206;6.888;2023-04-25T09:26:03;13.20;99.90
5246;DHT22;54412;51.206;6.888;2023-04-25T09:28:32;13.20;99.90
5246;DHT22;54412;51.206;6.888;2023-04-25T09:31:00;13.30;99.90
5246;DHT22;54412;51.206;6.888;2023-04-25T09:33:29;13.30;99.90
5246;DHT22;54412;51.206;6.888;2023-04-25T09:36:02;13.00;99.90
5246;DHT22;54412;51.206;6.888;2023-04-25T09:38:31;12.50;99.90
5246;DHT22;54412;51.206;6.888;2023-04-25T09:40:58;12.20;99.90
5246;DHT22;54412;51.206;6.888;2023-04-25T09:43:24;11.80;99.90
5246;DHT22;54412;51.206;6.888;2023-04-25T09:45:53;11.70;99.90
5246;DHT22;54412;51.206;6.888;2023-04-25T09:48:24;11.60;99.90
5246;DHT22;54412;51.206;6.888;2023-04-25T09:51:10;11.50;99.90
5246;DHT22;54412;51.206;6.888;2023-04-25T09:53:40;11.50;99.90
5246;DHT22;54412;51.206;6.888;2023-04-25T09:56:16;11.80;99.90
5246;DHT22;54412;51.206;6.888;2023-04-25T09:58:42;12.40;99.90
5246;DHT22;54412;51.206;6.888;2023-04-25T10:01:09;12.70;99.90
5246;DHT22;54412;51.206;6.888;2023-04-25T10:03:37;12.70;99.90
5246;DHT22;54412;51.206;6.888;2023-04-25T10:06:12;12.50;99.90
5246;DHT22;54412;51.206;6.888;2023-04-25T10:08:40;12.20;99.90
5246;DHT22;54412;51.206;6.888;2023-04-25T10:11:08;12.30;99.90
5246;DHT22;54412;51.206;6.888;2023-04-25T10:13:35;12.30;99.90
5246;DHT22;54412;51.206;6.888;2023-04-25T10:16:03;12.40;99.90
5246;DHT22;54412;51.206;6.888;2023-04-25T10:18:31;12.20;99.90
5246;DHT22;54412;51.206;6.888;2023-04-25T10:21:00;12.00;99.90
5246;DHT22;54412;51.206;6.888;2023-04-25T10:23:29;12.00;99.90
5246;DHT22;54412;51.206;6.888;2023-04-25T10:25:56;12.00;99.90
5246;DHT22;54412;51.206;6.888;2023-04-25T10:28:23;12.00;99.90
5246;DHT22;54412;51.206;6.888;2023-04-25T10:31:07;12.00;99.90
5246;DHT22;54412;51.206;6.888;2023-04-25T10:33:40;11.80;99.90
5246;DHT22;54412;51.206;6.888;2023-04-25T10:36:15;11.70;99.90
5246;DHT22;54412;51.206;6.888;2023-04-25T10:38:44;11.60;99.90
5246;DHT22;54412;51.206;6.888;2023-04-25T10:41:11;11.70;99.90
5246;DHT22;54412;51.206;6.888;2023-04-25T10:43:43;11.70;99.90
5246;DHT22;54412;51.206;6.888;2023-04-25T10:46:23;11.80;99.90
5246;DHT22;54412;51.206;6.888;2023-04-25T10:48:52;11.80;99.90
5246;DHT22;54412;51.206;6.888;2023-04-25T10:51:23;11.60;99.90
5246;DHT22;54412;51.206;6.888;2023-04-25T10:54:02;11.70;99.90
5246;DHT22;54412;51.206;6.888;2023-04-25T10:56:32;11.70;99.90
5246;DHT22;54412;51.206;6.888;2023-04-25T10:59:10;11.90;99.90
5246;DHT22;54412;51.206;6.888;2023-04-25T11:01:44;12.10;99.90
5246;DHT22;54412;51.206;6.888;2023-04-25T11:04:30;12.10;99.90
5246;DHT22;54412;51.206;6.888;2023-04-25T11:10:07;12.50;99.90
5246;DHT22;54412;51.206;6.888;2023-04-25T11:12:33;13.20;99.90
5246;DHT22;54412;51.206;6.888;2023-04-25T11:15:00;13.50;99.90
5246;DHT22;54412;51.206;6.888;2023-04-25T11:17:28;13.90;99.90
5246;DHT22;54412;51.206;6.888;2023-04-25T11:19:54;13.70;99.90
5246;DHT22;54412;51.206;6.888;2023-04-25T11:22:21;13.30;99.90
5246;DHT22;54412;51.206;6.888;2023-04-25T11:24:47;13.10;99.90
5246;DHT22;54412;51.206;6.888;2023-04-25T11:27:13;13.00;99.90
5246;DHT22;54412;51.206;6.888;2023-04-25T11:29:39;12.90;99.90
5246;DHT22;54412;51.206;6.888;2023-04-25T11:32:04;13.40;99.90
5246;DHT22;54412;51.206;6.888;2023-04-25T11:34:31;14.00;99.50
5246;DHT22;54412;51.206;6.888;2023-04-25T11:36:59;13.80;97.30
5246;DHT22;54412;51.206;6.888;2023-04-25T11:39:26;13.30;97.30
5246;DHT22;54412;51.206;6.888;2023-04-25T11:41:53;13.60;99.00
5246;DHT22;54412;51.206;6.888;2023-04-25T11:44:20;13.90;97.60
5246;DHT22;54412;51.206;6.888;2023-04-25T11:46:46;14.30;98.20
5246;DHT22;54412;51.206;6.888;2023-04-25T11:49:15;14.70;96.40
5246;DHT22;54412;51.206;6.888;2023-04-25T11:51:41;15.10;95.70
5246;DHT22;54412;51.206;6.888;2023-04-25T11:54:09;15.00;93.90
5246;DHT22;54412;51.206;6.888;2023-04-25T11:56:35;15.30;95.30
5246;DHT22;54412;51.206;6.888;2023-04-25T11:59:03;15.70;96.30
5246;DHT22;54412;51.206;6.888;2023-04-25T12:03:58;14.90;96.00
5246;DHT22;54412;51.206;6.888;2023-04-25T12:06:37;14.50;96.90
5246;DHT22;54412;51.206;6.888;2023-04-25T12:09:07;14.20;99.40
5246;DHT22;54412;51.206;6.888;2023-04-25T12:11:46;14.00;98.00
5246;DHT22;54412;51.206;6.888;2023-04-25T12:14:24;13.80;97.80
5246;DHT22;54412;51.206;6.888;2023-04-25T12:16:54;13.10;99.90
5246;DHT22;54412;51.206;6.888;2023-04-25T12:19:21;12.90;99.90
5246;DHT22;54412;51.206;6.888;2023-04-25T12:21:48;12.90;99.90
5246;DHT22;54412;51.206;6.888;2023-04-25T12:24:21;12.60;99.90
5246;DHT22;54412;51.206;6.888;2023-04-25T12:27:03;12.30;99.90
5246;DHT22;54412;51.206;6.888;2023-04-25T12:29:34;12.20;99.90
5246;DHT22;54412;51.206;6.888;2023-04-25T12:32:00;12.10;99.90
5246;DHT22;54412;51.206;6.888;2023-04-25T12:34:28;12.10;99.90
5246;DHT22;54412;51.206;6.888;2023-04-25T12:36:54;11.80;99.90
5246;DHT22;54412;51.206;6.888;2023-04-25T12:39:22;11.70;99.90
5246;DHT22;54412;51.206;6.888;2023-04-25T12:41:52;11.60;99.90
5246;DHT22;54412;51.206;6.888;2023-04-25T12:44:19;11.20;99.90
5246;DHT22;54412;51.206;6.888;2023-04-25T12:46:46;11.20;99.90
5246;DHT22;54412;51.206;6.888;2023-04-25T12:49:13;11.10;99.90
5246;DHT22;54412;51.206;6.888;2023-04-25T12:51:39;11.10;99.90
5246;DHT22;54412;51.206;6.888;2023-04-25T12:54:05;11.20;99.90
5246;DHT22;54412;51.206;6.888;2023-04-25T12:56:32;11.80;99.90
5246;DHT22;54412;51.206;6.888;2023-04-25T12:58:58;12.50;99.90
5246;DHT22;54412;51.206;6.888;2023-04-25T13:01:25;13.00;99.90
5246;DHT22;54412;51.206;6.888;2023-04-25T13:03:52;13.30;99.90
5246;DHT22;54412;51.206;6.888;2023-04-25T13:06:18;13.80;99.90
5246;DHT22;54412;51.206;6.888;2023-04-25T13:08:45;14.20;99.90
5246;DHT22;54412;51.206;6.888;2023-04-25T13:11:11;14.40;99.90
5246;DHT22;54412;51.206;6.888;2023-04-25T13:13:37;14.20;99.90
5246;DHT22;54412;51.206;6.888;2023-04-25T13:16:06;14.20;99.90
5246;DHT22;54412;51.206;6.888;2023-04-25T13:18:33;14.20;99.90
5246;DHT22;54412;51.206;6.888;2023-04-25T13:20:59;13.60;99.90
5246;DHT22;54412;51.206;6.888;2023-04-25T13:23:26;13.40;99.90
5246;DHT22;54412;51.206;6.888;2023-04-25T13:25:53;13.30;99.90
5246;DHT22;54412;51.206;6.888;2023-04-25T13:28:20;12.90;99.90
5246;DHT22;54412;51.206;6.888;2023-04-25T13:30:46;12.70;99.90
5246;DHT22;54412;51.206;6.888;2023-04-25T13:33:13;12.50;99.90
5246;DHT22;54412;51.206;6.888;2023-04-25T13:35:41;12.40;99.90
5246;DHT22;54412;51.206;6.888;2023-04-25T13:38:07;12.30;99.90
5246;DHT22;54412;51.206;6.888;2023-04-25T13:40:34;12.30;99.90
5246;DHT22;54412;51.206;6.888;2023-04-25T13:43:01;12.40;99.90
5246;DHT22;54412;51.206;6.888;2023-04-25T13:45:27;12.50;99.90
5246;DHT22;54412;51.206;6.888;2023-04-25T13:47:52;12.60;99.90
5246;DHT22;54412;51.206;6.888;2023-04-25T13:50:18;12.70;99.90
5246;DHT22;54412;51.206;6.888;2023-04-25T13:52:44;12.90;99.90
5246;DHT22;54412;51.206;6.888;2023-04-25T13:55:10;13.00;99.90
5246;DHT22;54412;51.206;6.888;2023-04-25T13:57:37;13.30;99.90
5246;DHT22;54412;51.206;6.888;2023-04-25T14:00:04;13.50;99.90
5246;DHT22;54412;51.206;6.888;2023-04-25T14:02:34;13.30;99.90
5246;DHT22;54412;51.206;6.888;2023-04-25T14:05:01;13.20;99.90
5246;DHT22;54412;51.206;6.888;2023-04-25T14:07:28;13.10;99.90
5246;DHT22;54412;51.206;6.888;2023-04-25T14:09:54;13.00;99.90
5246;DHT22;54412;51.206;6.888;2023-04-25T14:12:19;12.90;99.90
5246;DHT22;54412;51.206;6.888;2023-04-25T14:14:45;12.70;99.90
5246;DHT22;54412;51.206;6.888;2023-04-25T14:17:11;13.10;99.90
5246;DHT22;54412;51.206;6.888;2023-04-25T14:19:36;13.20;99.90
5246;DHT22;54412;51.206;6.888;2023-04-25T14:22:03;13.40;99.90
5246;DHT22;54412;51.206;6.888;2023-04-25T14:24:29;13.10;99.90
5246;DHT22;54412;51.206;6.888;2023-04-25T14:26:55;12.80;99.90
5246;DHT22;54412;51.206;6.888;2023-04-25T14:29:21;12.60;99.90
5246;DHT22;54412;51.206;6.888;2023-04-25T14:31:47;12.40;99.90
5246;DHT22;54412;51.206;6.888;2023-04-25T14:34:12;12.20;99.90
5246;DHT22;54412;51.206;6.888;2023-04-25T14:36:38;12.10;99.90
5246;DHT22;54412;51.206;6.888;2023-04-25T14:39:04;12.10;99.90
5246;DHT22;54412;51.206;6.888;2023-04-25T14:41:32;12.10;99.90
5246;DHT22;54412;51.206;6.888;2023-04-25T14:43:58;12.10;99.90
5246;DHT22;54412;51.206;6.888;2023-04-25T14:46:23;12.10;99.90
5246;DHT22;54412;51.206;6.888;2023-04-25T14:48:50;12.00;99.90
5246;DHT22;54412;51.206;6.888;2023-04-25T14:51:16;12.00;99.90
5246;DHT22;54412;51.206;6.888;2023-04-25T14:53:41;12.10;99.90
5246;DHT22;54412;51.206;6.888;2023-04-25T14:56:07;12.10;99.90
5246;DHT22;54412;51.206;6.888;2023-04-25T14:58:34;12.10;99.90
5246;DHT22;54412;51.206;6.888;2023-04-25T15:01:00;12.30;99.90
5246;DHT22;54412;51.206;6.888;2023-04-25T15:03:26;12.50;99.90
5246;DHT22;54412;51.206;6.888;2023-04-25T15:05:52;12.70;99.90
5246;DHT22;54412;51.206;6.888;2023-04-25T15:08:20;13.20;99.90
5246;DHT22;54412;51.206;6.888;2023-04-25T15:10:46;13.20;99.90
5246;DHT22;54412;51.206;6.888;2023-04-25T15:13:12;13.00;99.90
5246;DHT22;54412;51.206;6.888;2023-04-25T15:15:38;13.20;99.90
5246;DHT22;54412;51.206;6.888;2023-04-25T15:18:04;13.10;99.90
5246;DHT22;54412;51.206;6.888;2023-04-25T15:20:30;12.90;99.90
5246;DHT22;54412;51.206;6.888;2023-04-25T15:22:56;12.70;99.90
5246;DHT22;54412;51.206;6.888;2023-04-25T15:25:22;12.80;99.90
5246;DHT22;54412;51.206;6.888;2023-04-25T15:27:48;12.70;99.90
5246;DHT22;54412;51.206;6.888;2023-04-25T15:30:15;12.50;99.90
5246;DHT22;54412;51.206;6.888;2023-04-25T15:32:43;12.30;99.90
5246;DHT22;54412;51.206;6.888;2023-04-25T15:35:09;12.20;99.90
5246;DHT22;54412;51.206;6.888;2023-04-25T15:37:36;12.10;99.90
5246;DHT22;54412;51.206;6.888;2023-04-25T15:40:07;12.10;99.90
5246;DHT22;54412;51.206;6.888;2023-04-25T15:42:40;12.10;99.90
5246;DHT22;54412;51.206;6.888;2023-04-25T15:45:09;12.10;99.90
5246;DHT22;54412;51.206;6.888;2023-04-25T15:47:37;12.20;99.90
5246;DHT22;54412;51.206;6.888;2023-04-25T15:50:05;12.10;99.90
5246;DHT22;54412;51.206;6.888;2023-04-25T15:52:33;12.20;99.90
5246;DHT22;54412;51.206;6.888;2023-04-25T15:54:59;12.30;99.90
5246;DHT22;54412;51.206;6.888;2023-04-25T15:57:25;12.50;99.90
5246;DHT22;54412;51.206;6.888;2023-04-25T15:59:51;12.70;99.90